createdAt,value
2022-08-07T00:04:41.050Z,11.32
2022-08-07T00:10:26.015Z,11.07
2022-08-07T00:15:55.411Z,10.91
2022-08-07T00:21:56.678Z,10.69
2022-08-07T00:26:58.787Z,10.60
2022-08-07T00:32:34.942Z,10.58
2022-08-07T00:37:48.176Z,10.50
2022-08-07T00:43:59.639Z,10.41
2022-08-07T00:49:04.905Z,10.24
2022-08-07T00:54:16.611Z,10.12
2022-08-07T01:00:15.886Z,9.99
2022-08-07T01:05:32.816Z,9.96
2022-08-07T01:10:56.390Z,10.01
2022-08-07T01:16:12.135Z,10.04
2022-08-07T01:21:38.401Z,10.06
2022-08-07T01:27:17.696Z,10.04
2022-08-07T01:32:31.029Z,9.95
2022-08-07T01:37:42.417Z,9.82
2022-08-07T01:43:10.004Z,9.79
2022-08-07T01:48:40.987Z,9.77
2022-08-07T01:54:08.869Z,9.73
2022-08-07T01:59:30.904Z,9.54
2022-08-07T02:04:56.626Z,9.34
2022-08-07T02:10:26.887Z,9.19
2022-08-07T02:15:37.639Z,9.17
2022-08-07T02:20:57.288Z,9.21
2022-08-07T02:26:33.171Z,9.24
2022-08-07T02:31:59.508Z,9.11
2022-08-07T02:37:11.525Z,8.98
2022-08-07T02:42:21.191Z,8.93
2022-08-07T02:47:44.994Z,8.96
2022-08-07T02:53:46.288Z,8.93
2022-08-07T02:59:18.410Z,8.80
2022-08-07T03:04:42.307Z,8.76
2022-08-07T03:09:56.464Z,8.71
2022-08-07T03:15:15.771Z,8.63
2022-08-07T03:21:04.076Z,8.55
2022-08-07T03:26:21.105Z,8.61
2022-08-07T03:31:42.470Z,8.72
2022-08-07T03:36:57.416Z,8.85
2022-08-07T03:42:16.942Z,8.94
2022-08-07T03:47:29.420Z,9.01
2022-08-07T03:52:40.790Z,9.09
2022-08-07T03:58:34.438Z,9.29
2022-08-07T04:04:17.070Z,9.57
2022-08-07T04:10:15.646Z,9.88
2022-08-07T04:15:37.209Z,10.29
2022-08-07T04:21:07.311Z,10.90
2022-08-07T04:26:35.312Z,11.69
2022-08-07T04:32:09.956Z,12.60
2022-08-07T04:37:52.807Z,13.43
2022-08-07T04:44:10.532Z,14.23
2022-08-07T04:49:38.430Z,14.91
2022-08-07T04:54:53.990Z,15.51
2022-08-07T05:00:17.248Z,16.08
2022-08-07T05:05:52.101Z,16.57
2022-08-07T05:11:19.360Z,17.00
2022-08-07T05:16:44.011Z,17.41
2022-08-07T05:22:01.780Z,17.85
2022-08-07T05:28:03.239Z,18.37
2022-08-07T05:32:52.202Z,18.80
2022-08-07T05:38:59.994Z,19.07
2022-08-07T05:44:12.000Z,19.37
2022-08-07T05:49:24.040Z,19.64
2022-08-07T05:54:55.555Z,19.89
2022-08-07T06:00:25.677Z,20.12
2022-08-07T06:05:40.764Z,20.33
2022-08-07T06:11:18.129Z,20.78
2022-08-07T06:16:56.386Z,21.07
2022-08-07T06:22:23.562Z,21.32
2022-08-07T06:28:01.918Z,21.74
2022-08-07T06:33:16.175Z,22.11
2022-08-07T06:38:28.498Z,22.15
2022-08-07T06:43:46.582Z,22.52
2022-08-07T06:49:13.697Z,23.22
2022-08-07T06:55:31.567Z,23.74
2022-08-07T07:00:47.786Z,24.34
2022-08-07T07:06:13.714Z,25.09
2022-08-07T07:12:09.131Z,25.62
2022-08-07T07:17:08.098Z,25.95
2022-08-07T07:24:05.970Z,26.43
2022-08-07T07:28:41.923Z,26.69
2022-08-07T07:33:49.068Z,26.77
2022-08-07T07:39:16.648Z,26.51
2022-08-07T07:44:38.566Z,25.47
2022-08-07T07:50:35.521Z,24.58
2022-08-07T07:55:37.758Z,24.52
2022-08-07T08:00:57.171Z,25.10
2022-08-07T08:06:08.038Z,25.44
2022-08-07T08:11:59.677Z,26.00
2022-08-07T08:17:56.230Z,26.18
2022-08-07T08:23:20.648Z,26.35
2022-08-07T08:28:38.578Z,25.72
2022-08-07T08:33:59.502Z,24.54
2022-08-07T08:39:39.571Z,23.78
2022-08-07T08:45:15.916Z,23.78
2022-08-07T08:50:39.723Z,23.99
2022-08-07T08:56:04.376Z,24.41
2022-08-07T09:01:24.254Z,24.52
2022-08-07T09:06:54.452Z,24.42
2022-08-07T09:12:41.961Z,24.26
2022-08-07T09:18:53.193Z,23.76
2022-08-07T09:25:17.857Z,23.22
2022-08-07T09:31:15.512Z,22.82
2022-08-07T09:37:03.172Z,22.91
2022-08-07T09:42:39.472Z,23.29
2022-08-07T09:48:05.180Z,23.72
2022-08-07T09:53:41.138Z,24.13
2022-08-07T09:59:14.742Z,24.12
2022-08-07T10:04:38.057Z,23.97
2022-08-07T10:10:03.373Z,23.89
2022-08-07T10:15:44.798Z,23.78
2022-08-07T10:21:50.590Z,23.67
2022-08-07T10:27:02.971Z,23.26
2022-08-07T10:32:52.921Z,22.85
2022-08-07T10:39:02.332Z,22.43
2022-08-07T10:44:38.642Z,22.24
2022-08-07T10:49:51.752Z,22.25
2022-08-07T10:55:27.132Z,22.23
2022-08-07T11:01:23.938Z,22.21
2022-08-07T11:06:55.813Z,22.19
2022-08-07T11:12:31.570Z,22.06
2022-08-07T11:17:46.067Z,22.05
2022-08-07T11:23:04.784Z,22.14
2022-08-07T11:28:31.343Z,22.05
2022-08-07T11:34:00.802Z,22.02
2022-08-07T11:40:01.123Z,22.02
2022-08-07T11:45:36.052Z,22.10
2022-08-07T11:51:41.993Z,22.19
2022-08-07T11:57:25.054Z,22.24
2022-08-07T12:03:41.639Z,22.46
2022-08-07T12:09:16.509Z,22.81
2022-08-07T12:14:38.561Z,23.02
2022-08-07T12:20:02.592Z,23.06
2022-08-07T12:26:21.360Z,23.22
2022-08-07T12:32:04.238Z,23.44
2022-08-07T12:37:27.876Z,23.54
2022-08-07T12:42:38.221Z,23.45
2022-08-07T12:48:28.367Z,23.33
2022-08-07T12:54:38.036Z,23.32
2022-08-07T12:59:54.736Z,23.25
2022-08-07T13:06:03.651Z,23.16
2022-08-07T13:10:59.610Z,23.12
2022-08-07T13:16:31.080Z,23.30
2022-08-07T13:21:54.997Z,23.63
2022-08-07T13:28:05.443Z,23.97
2022-08-07T13:33:06.864Z,24.25
2022-08-07T13:38:58.665Z,24.49
2022-08-07T13:44:10.366Z,24.73
2022-08-07T13:50:35.815Z,24.89
2022-08-07T13:55:07.317Z,24.68
2022-08-07T14:00:26.943Z,24.66
2022-08-07T14:05:38.258Z,24.41
2022-08-07T14:11:14.700Z,23.97
2022-08-07T14:16:35.008Z,23.67
2022-08-07T14:22:01.830Z,23.59
2022-08-07T14:28:12.551Z,23.57
2022-08-07T14:32:49.858Z,23.63
2022-08-07T14:38:05.999Z,23.64
2022-08-07T14:48:48.477Z,23.41
2022-08-07T14:54:30.180Z,23.23
2022-08-07T15:05:26.887Z,23.28
2022-08-07T15:11:01.772Z,23.21
2022-08-07T15:16:14.634Z,23.16
2022-08-07T15:27:23.270Z,22.88
2022-08-07T15:33:01.558Z,22.84
2022-08-07T15:38:29.886Z,22.80
2022-08-07T15:44:04.809Z,22.75
2022-08-07T15:54:51.689Z,22.63
2022-08-07T16:00:32.135Z,22.55
2022-08-07T16:05:58.607Z,22.53
2022-08-07T16:11:25.372Z,22.56
2022-08-07T16:18:02.587Z,22.58
2022-08-07T16:23:11.882Z,22.54
2022-08-07T16:29:18.458Z,22.50
2022-08-07T16:34:27.731Z,22.46
2022-08-07T16:40:12.869Z,22.40
2022-08-07T16:46:33.141Z,22.32
2022-08-07T16:52:01.636Z,22.23
2022-08-07T16:58:02.322Z,22.12
2022-08-07T17:03:57.700Z,22.06
2022-08-07T17:09:13.847Z,22.01
2022-08-07T17:14:39.096Z,21.96
2022-08-07T17:20:02.567Z,21.90
2022-08-07T17:25:17.641Z,21.84
2022-08-07T17:30:32.332Z,21.79
2022-08-07T17:36:04.391Z,21.68
2022-08-07T17:42:04.071Z,21.54
2022-08-07T17:47:16.836Z,21.40
2022-08-07T17:52:31.686Z,21.22
2022-08-07T17:57:56.400Z,21.03
2022-08-07T18:03:20.222Z,20.85
2022-08-07T18:08:34.247Z,20.72
2022-08-07T18:13:50.944Z,20.53
2022-08-07T18:21:03.958Z,20.23
2022-08-07T18:24:51.117Z,19.91
2022-08-07T18:30:31.502Z,19.64
2022-08-07T18:36:00.280Z,19.41
2022-08-07T18:41:45.306Z,19.15
2022-08-07T18:47:22.540Z,18.84
2022-08-07T18:53:06.763Z,18.50
2022-08-07T18:58:54.410Z,18.18
2022-08-07T19:04:09.809Z,17.93
2022-08-07T19:09:56.088Z,17.80
2022-08-07T19:16:03.108Z,17.68
2022-08-07T19:21:08.517Z,17.41
2022-08-07T19:26:25.295Z,17.13
2022-08-07T19:32:07.864Z,16.88
2022-08-07T19:37:55.319Z,16.64
2022-08-07T19:43:48.980Z,16.42
2022-08-07T19:49:18.551Z,16.25
2022-08-07T19:55:03.650Z,16.09
2022-08-07T20:00:39.920Z,15.95
2022-08-07T20:06:15.329Z,15.78
2022-08-07T20:12:22.364Z,15.61
2022-08-07T20:17:33.458Z,15.44
2022-08-07T20:22:59.615Z,15.30
2022-08-07T20:28:39.705Z,15.34
2022-08-07T20:34:39.963Z,15.72
2022-08-07T20:40:32.367Z,16.08
2022-08-07T20:46:27.301Z,16.22
2022-08-07T20:52:16.810Z,16.26
2022-08-07T20:58:02.363Z,16.30
2022-08-07T21:03:38.322Z,16.32
2022-08-07T21:09:07.503Z,16.28
2022-08-07T21:14:48.513Z,16.21
2022-08-07T21:20:29.466Z,16.12
2022-08-07T21:26:14.916Z,16.05
2022-08-07T21:32:42.318Z,16.00
2022-08-07T21:37:58.780Z,15.93
2022-08-07T21:43:36.639Z,15.83
2022-08-07T21:49:40.765Z,15.73
2022-08-07T21:56:35.809Z,15.63
2022-08-07T22:02:11.393Z,15.52
2022-08-07T22:07:59.390Z,15.41
2022-08-07T22:14:06.039Z,15.34
2022-08-07T22:20:30.047Z,15.28
2022-08-07T22:26:29.222Z,15.19
2022-08-07T22:32:20.517Z,15.11
2022-08-07T22:38:25.582Z,15.04
2022-08-07T22:43:57.063Z,15.01
2022-08-07T22:49:54.364Z,14.99
2022-08-07T22:55:45.732Z,14.95
2022-08-07T23:01:50.636Z,14.92
2022-08-07T23:07:41.539Z,14.91
2022-08-07T23:13:29.280Z,14.92
2022-08-07T23:19:38.846Z,14.98
2022-08-07T23:25:28.337Z,14.97
2022-08-07T23:31:07.142Z,14.95
2022-08-07T23:37:19.965Z,14.89
2022-08-07T23:43:02.628Z,14.78
2022-08-07T23:49:49.935Z,14.67
2022-08-07T23:55:53.602Z,14.60
